Time;durP1;ratioP1;P1;durP2;ratioP2;P2;SDS_P1;SDS_P2;PMS_P1;PMS_P2;Temp;Humidity;BMP_temperature;BMP_pressure;BME280_temperature;BME280_humidity;BME280_pressure;Samples;Min_cycle;Max_cycle;Signal;HPM_P1;HPM_P2
2021/05/22 00:02:24;;;;;;;5.78;3.30;;;9.80;99.90;;;;;;5055783;28;20430;-62
2021/05/22 00:04:50;;;;;;;6.10;3.07;;;9.60;99.90;;;;;;5055213;28;20209;-61
2021/05/22 00:07:15;;;;;;;10.33;3.40;;;9.50;99.90;;;;;;5055670;28;20191;-61
2021/05/22 00:09:41;;;;;;;3.90;2.40;;;9.40;99.90;;;;;;5055409;28;20246;-62
2021/05/22 00:12:08;;;;;;;4.87;2.50;;;9.40;99.90;;;;;;5055565;28;20192;-61
2021/05/22 00:14:34;;;;;;;3.15;2.60;;;9.30;99.90;;;;;;5055387;28;20444;-62
2021/05/22 00:16:59;;;;;;;5.00;2.47;;;9.30;99.90;;;;;;5055467;28;20281;-61
2021/05/22 00:19:25;;;;;;;3.10;2.77;;;9.30;99.90;;;;;;5055163;28;20215;-61
2021/05/22 00:21:50;;;;;;;4.90;2.50;;;9.30;99.90;;;;;;5055193;28;20180;-61
2021/05/22 00:24:16;;;;;;;3.00;2.30;;;9.30;99.90;;;;;;5054662;28;20678;-61
2021/05/22 00:26:42;;;;;;;9.20;3.10;;;9.30;99.90;;;;;;5055412;28;20233;-61
2021/05/22 00:29:07;;;;;;;5.27;2.53;;;9.30;99.90;;;;;;5055329;28;20181;-61
2021/05/22 00:31:34;;;;;;;5.43;2.67;;;9.30;99.90;;;;;;5055193;28;20176;-61
2021/05/22 00:34:00;;;;;;;9.48;2.67;;;9.30;99.90;;;;;;5054649;28;20523;-61
2021/05/22 00:36:25;;;;;;;4.33;2.73;;;9.30;99.90;;;;;;5055186;28;20292;-61
2021/05/22 00:38:51;;;;;;;4.20;2.70;;;9.20;99.90;;;;;;5055288;28;20179;-61
2021/05/22 00:41:17;;;;;;;3.23;2.17;;;9.30;99.90;;;;;;5055102;28;20498;-61
2021/05/22 00:43:42;;;;;;;4.50;2.90;;;9.30;99.90;;;;;;5054572;28;20537;-61
2021/05/22 00:46:08;;;;;;;4.63;2.53;;;9.30;99.90;;;;;;5054802;28;20288;-61
2021/05/22 00:48:34;;;;;;;4.10;2.30;;;9.30;99.90;;;;;;5054415;28;20418;-61
2021/05/22 00:51:00;;;;;;;5.53;2.73;;;9.40;99.90;;;;;;5054939;28;20935;-61
2021/05/22 00:53:27;;;;;;;2.90;2.30;;;9.40;99.90;;;;;;5054496;28;20194;-61
2021/05/22 00:55:52;;;;;;;3.22;2.63;;;9.30;99.90;;;;;;5036977;28;20180;-61
2021/05/22 00:58:18;;;;;;;7.77;2.90;;;9.20;99.90;;;;;;5037091;28;20184;-61
2021/05/22 01:00:51;;;;;;;3.60;2.73;;;9.10;99.90;;;;;;5054498;28;20199;-61
2021/05/22 01:03:36;;;;;;;6.22;2.78;;;9.20;99.90;;;;;;5054458;28;20194;-61
2021/05/22 01:06:23;;;;;;;6.03;2.10;;;9.20;99.90;;;;;;5054361;28;20282;-61
2021/05/22 01:08:55;;;;;;;2.58;1.90;;;9.20;99.90;;;;;;5054422;28;20264;-62
2021/05/22 01:11:42;;;;;;;3.58;2.20;;;9.30;99.90;;;;;;5054348;28;20196;-62
2021/05/22 01:14:18;;;;;;;5.18;2.17;;;9.40;99.90;;;;;;5053531;28;20196;-62
2021/05/22 01:16:46;;;;;;;7.50;2.45;;;9.50;99.90;;;;;;5054478;28;20213;-65
2021/05/22 01:19:23;;;;;;;7.93;1.95;;;9.60;99.90;;;;;;5054324;28;20183;-65
2021/05/22 01:21:49;;;;;;;6.47;2.20;;;9.70;77.10;;;;;;5054290;28;20617;-64
2021/05/22 01:24:17;;;;;;;1.73;1.60;;;9.70;17.00;;;;;;5053640;28;20262;-64
2021/05/22 01:26:44;;;;;;;6.30;2.03;;;9.80;1.00;;;;;;5054245;28;20179;-64
2021/05/22 01:29:14;;;;;;;4.32;1.95;;;9.80;1.00;;;;;;5054128;28;20187;-64
2021/05/22 01:31:40;;;;;;;2.40;1.40;;;9.90;1.00;;;;;;5054222;28;20191;-64
2021/05/22 01:34:07;;;;;;;2.33;1.60;;;9.80;1.00;;;;;;5052803;28;20516;-64
2021/05/22 01:36:33;;;;;;;4.10;1.98;;;9.90;1.00;;;;;;5053759;28;20188;-64
2021/05/22 01:38:58;;;;;;;3.03;1.80;;;9.90;1.00;;;;;;5054169;28;20187;-64
2021/05/22 01:41:24;;;;;;;2.70;1.30;;;9.90;1.00;;;;;;5054386;28;20180;-64
2021/05/22 01:43:55;;;;;;;4.80;2.20;;;10.00;1.00;;;;;;5053494;28;20214;-64
2021/05/22 01:46:22;;;;;;;5.45;1.75;;;9.80;1.00;;;;;;5053960;28;20601;-64
2021/05/22 01:48:48;;;;;;;2.40;2.20;;;9.70;1.00;;;;;;5053711;28;20187;-64
2021/05/22 01:51:17;;;;;;;2.90;1.70;;;9.90;1.00;;;;;;5054007;28;20187;-61
2021/05/22 01:53:44;;;;;;;2.55;1.70;;;9.90;1.00;;;;;;5035363;28;20331;-61
2021/05/22 01:56:10;;;;;;;5.40;2.25;;;9.80;1.00;;;;;;5053530;28;20274;-62
2021/05/22 01:58:37;;;;;;;1.70;1.60;;;9.90;1.00;;;;;;5036046;28;20238;-61
2021/05/22 02:01:03;;;;;;;5.32;1.83;;;9.80;1.00;;;;;;5054505;28;20184;-63
2021/05/22 02:03:47;;;;;;;4.57;1.80;;;9.60;1.00;;;;;;5052962;28;20511;-62
2021/05/22 02:06:14;;;;;;;5.40;2.10;;;9.50;1.00;;;;;;5053499;28;20249;-62
2021/05/22 02:08:44;;;;;;;3.95;1.95;;;9.50;1.00;;;;;;5053340;28;20681;-62
2021/05/22 02:11:11;;;;;;;9.52;2.42;;;9.40;12.90;;;;;;5035498;28;20215;-62
2021/05/22 02:13:39;;;;;;;3.15;1.60;;;9.40;41.30;;;;;;5035405;28;20674;-62
2021/05/22 02:16:06;;;;;;;3.08;1.85;;;9.30;54.40;;;;;;5052729;28;20184;-62
2021/05/22 02:18:35;;;;;;;3.78;1.83;;;9.30;78.60;;;;;;5053134;28;20187;-62
2021/05/22 02:21:03;;;;;;;2.90;1.70;;;9.40;91.10;;;;;;5053060;28;20249;-62
2021/05/22 02:23:30;;;;;;;1.85;1.52;;;9.30;94.30;;;;;;5052751;28;20604;-62
2021/05/22 02:25:57;;;;;;;5.15;2.30;;;9.20;98.40;;;;;;5052989;28;20249;-62
2021/05/22 02:28:28;;;;;;;3.60;2.30;;;9.20;99.90;;;;;;5052890;28;20215;-62
2021/05/22 02:30:54;;;;;;;4.68;2.08;;;9.20;99.90;;;;;;5035379;28;20601;-62
2021/05/22 02:33:20;;;;;;;5.45;1.90;;;9.10;99.90;;;;;;5052891;28;20190;-62
2021/05/22 02:35:48;;;;;;;5.33;2.47;;;9.20;99.90;;;;;;5052816;28;20200;-62
2021/05/22 02:38:20;;;;;;;3.85;1.83;;;9.10;99.90;;;;;;5052876;28;20203;-62
2021/05/22 02:40:47;;;;;;;2.90;1.50;;;9.10;99.90;;;;;;5052881;28;20513;-62
2021/05/22 02:43:13;;;;;;;4.82;2.40;;;9.00;99.90;;;;;;5052667;28;20180;-62
2021/05/22 02:45:44;;;;;;;5.57;2.00;;;9.10;99.90;;;;;;5051583;28;20639;-62
2021/05/22 02:48:15;;;;;;;5.75;1.90;;;9.10;99.90;;;;;;5035090;28;20184;-62
2021/05/22 02:50:43;;;;;;;2.55;2.30;;;9.10;99.90;;;;;;5052844;28;20215;-62
2021/05/22 02:53:11;;;;;;;2.65;1.58;;;9.10;99.90;;;;;;5052719;28;20184;-62
2021/05/22 02:55:38;;;;;;;3.47;1.80;;;9.10;99.90;;;;;;5052594;28;20605;-62
2021/05/22 02:58:05;;;;;;;4.40;1.85;;;9.20;99.90;;;;;;5052738;28;20187;-63
2021/05/22 03:00:32;;;;;;;3.17;1.75;;;9.10;99.90;;;;;;5052707;28;20182;-62
2021/05/22 03:02:59;;;;;;;3.17;1.80;;;9.10;99.90;;;;;;5052632;28;20211;-62
2021/05/22 03:05:25;;;;;;;3.17;1.35;;;9.10;99.90;;;;;;5052364;28;20212;-62
2021/05/22 03:07:51;;;;;;;2.43;1.50;;;9.10;99.90;;;;;;5052562;28;20192;-62
2021/05/22 03:10:17;;;;;;;3.33;1.80;;;9.10;99.90;;;;;;5052338;28;20199;-62
2021/05/22 03:12:43;;;;;;;5.80;1.73;;;9.10;99.90;;;;;;5050226;28;20694;-62
2021/05/22 03:15:09;;;;;;;2.33;1.93;;;9.10;99.90;;;;;;5051746;28;20188;-62
2021/05/22 03:17:35;;;;;;;5.05;1.95;;;9.10;99.90;;;;;;5052566;28;20209;-61
2021/05/22 03:20:01;;;;;;;2.90;1.37;;;9.20;99.90;;;;;;5052431;28;20179;-61
2021/05/22 03:22:27;;;;;;;2.38;1.40;;;9.10;99.90;;;;;;5052620;28;20198;-61
2021/05/22 03:24:52;;;;;;;2.63;1.70;;;9.10;99.90;;;;;;5051977;28;20652;-61
2021/05/22 03:27:18;;;;;;;2.87;1.70;;;9.00;99.90;;;;;;5052635;28;20613;-61
2021/05/22 03:29:43;;;;;;;2.57;1.60;;;9.10;99.90;;;;;;5052323;28;20683;-61
2021/05/22 03:32:09;;;;;;;5.03;1.67;;;9.00;99.90;;;;;;5052486;28;20175;-61
2021/05/22 03:34:34;;;;;;;2.20;1.43;;;9.10;99.90;;;;;;5051459;28;20656;-61
2021/05/22 03:37:00;;;;;;;4.80;2.20;;;9.20;99.90;;;;;;5052509;28;20183;-61
2021/05/22 03:39:26;;;;;;;2.70;1.40;;;9.10;99.90;;;;;;5052203;28;20185;-61
2021/05/22 03:41:54;;;;;;;2.27;2.07;;;9.10;99.90;;;;;;5052287;28;20183;-61
2021/05/22 03:44:19;;;;;;;2.28;1.80;;;9.10;99.90;;;;;;5051378;28;20280;-61
2021/05/22 03:46:45;;;;;;;4.43;1.87;;;9.20;99.90;;;;;;5052279;28;20201;-61
2021/05/22 03:49:10;;;;;;;5.87;1.80;;;9.30;99.90;;;;;;5052438;28;20180;-61
2021/05/22 03:51:36;;;;;;;3.17;2.00;;;9.30;99.90;;;;;;5052451;28;20177;-61
2021/05/22 03:54:03;;;;;;;4.70;1.60;;;9.40;99.90;;;;;;5051636;28;20215;-61
2021/05/22 03:56:29;;;;;;;1.60;1.10;;;9.80;98.30;;;;;;5054216;28;20318;-62
2021/05/22 03:58:55;;;;;;;2.80;1.40;;;10.90;1.00;;;;;;5055901;28;20637;-62
2021/05/22 04:01:21;;;;;;;3.43;1.53;;;12.00;1.00;;;;;;5055921;28;20276;-62
2021/05/22 04:03:46;;;;;;;4.00;1.50;;;12.20;1.00;;;;;;5054883;28;20272;-62
2021/05/22 04:06:12;;;;;;;2.77;1.33;;;12.50;1.00;;;;;;5055795;28;20188;-62
2021/05/22 04:08:38;;;;;;;2.53;1.30;;;13.00;1.00;;;;;;5055693;28;20275;-62
2021/05/22 04:11:03;;;;;;;2.20;1.40;;;13.00;99.90;;;;;;5055730;28;20197;-62
2021/05/22 04:13:29;;;;;;;2.30;1.10;;;13.90;99.90;;;;;;5055395;28;20230;-62
2021/05/22 04:15:55;;;;;;;2.75;1.15;;;13.60;1.00;;;;;;5055053;28;20442;-62
2021/05/22 04:18:21;;;;;;;3.60;1.50;;;14.00;1.00;;;;;;5055564;28;20602;-62
2021/05/22 04:20:46;;;;;;;3.20;1.03;;;14.30;1.00;;;;;;5055933;28;20173;-62
2021/05/22 04:23:12;;;;;;;3.50;1.47;;;14.70;99.90;;;;;;5055165;28;20278;-62
2021/05/22 04:25:37;;;;;;;2.83;1.00;;;15.10;1.00;;;;;;5055095;28;20204;-62
2021/05/22 04:28:03;;;;;;;1.43;1.17;;;14.20;99.90;;;;;;5055342;28;20177;-63
2021/05/22 04:30:29;;;;;;;3.83;1.27;;;14.40;99.90;;;;;;5055417;28;20169;-63
2021/05/22 04:32:54;;;;;;;2.40;1.00;;;14.20;1.00;;;;;;5055336;28;20177;-63
2021/05/22 04:35:20;;;;;;;6.73;1.90;;;14.10;1.00;;;;;;5054970;28;20189;-63
2021/05/22 04:37:46;;;;;;;1.63;1.53;;;14.00;1.00;;;;;;5055483;28;20177;-63
2021/05/22 04:40:12;;;;;;;4.43;1.80;;;13.90;9.50;;;;;;5055255;28;20423;-63
2021/05/22 04:42:38;;;;;;;3.23;1.00;;;14.40;1.00;;;;;;5055252;28;20826;-63
2021/05/22 04:45:05;;;;;;;1.13;0.80;;;15.50;1.00;;;;;;5054340;28;20509;-63
2021/05/22 04:47:31;;;;;;;2.05;0.95;;;15.30;99.90;;;;;;5054922;28;20495;-63
2021/05/22 04:49:56;;;;;;;1.83;1.10;;;14.70;92.60;;;;;;5054900;28;20177;-63
2021/05/22 04:52:23;;;;;;;1.60;0.80;;;14.40;54.10;;;;;;5055290;28;20585;-63
2021/05/22 04:54:50;;;;;;;6.20;1.23;;;14.40;99.90;;;;;;5054147;28;20185;-63
2021/05/22 04:57:15;;;;;;;1.95;0.90;;;13.90;1.00;;;;;;5054767;28;20322;-63
2021/05/22 04:59:41;;;;;;;3.67;1.13;;;13.80;99.90;;;;;;5054609;28;20268;-63
2021/05/22 05:02:06;;;;;;;3.20;1.40;;;14.20;1.00;;;;;;5054503;28;20255;-63
2021/05/22 05:04:32;;;;;;;2.17;1.03;;;14.70;99.90;;;;;;5053881;28;20708;-63
2021/05/22 05:06:58;;;;;;;4.60;2.00;;;15.10;1.00;;;;;;5053911;28;20203;-63
2021/05/22 05:09:23;;;;;;;1.83;0.73;;;15.00;1.00;;;;;;5054384;28;20179;-63
2021/05/22 05:11:49;;;;;;;2.27;1.27;;;13.80;99.90;;;;;;5054424;28;20198;-63
2021/05/22 05:14:18;;;;;;;3.50;1.70;;;14.00;65.50;;;;;;5053711;28;20181;-63
2021/05/22 05:16:43;;;;;;;4.93;1.92;;;14.90;1.00;;;;;;5054481;28;20605;-63
2021/05/22 05:19:09;;;;;;;1.93;1.00;;;15.80;99.90;;;;;;5054336;28;20192;-63
2021/05/22 05:21:34;;;;;;;2.00;1.10;;;16.80;99.90;;;;;;5054437;28;20188;-63
2021/05/22 05:24:00;;;;;;;1.87;0.80;;;17.90;1.00;;;;;;5054038;28;20563;-63
2021/05/22 05:26:25;;;;;;;6.67;1.77;;;18.80;1.00;;;;;;5054569;28;20177;-63
2021/05/22 05:28:51;;;;;;;1.90;1.00;;;19.40;1.00;;;;;;5037074;28;20187;-62
2021/05/22 05:31:16;;;;;;;1.53;1.03;;;19.50;1.00;;;;;;5054240;28;20183;-63
2021/05/22 05:33:42;;;;;;;2.20;0.70;;;17.60;1.00;;;;;;5054036;28;20177;-62
2021/05/22 05:36:07;;;;;;;6.30;1.20;;;16.60;44.80;;;;;;5053820;28;20176;-62
2021/05/22 05:38:33;;;;;;;2.23;1.47;;;15.60;99.90;;;;;;5054061;28;20177;-62
2021/05/22 05:40:59;;;;;;;3.67;1.03;;;15.20;1.00;;;;;;5054143;28;20173;-62
2021/05/22 05:43:25;;;;;;;2.90;1.45;;;15.00;1.00;;;;;;5053753;28;20272;-62
2021/05/22 05:45:51;;;;;;;1.67;0.87;;;15.00;1.00;;;;;;5053608;28;20319;-62
2021/05/22 05:48:17;;;;;;;3.50;1.27;;;16.00;99.90;;;;;;5054168;28;20432;-62
2021/05/22 05:50:42;;;;;;;3.03;1.03;;;17.70;1.00;;;;;;5053946;28;20195;-62
2021/05/22 05:53:08;;;;;;;4.33;1.20;;;17.90;1.00;;;;;;5053746;28;20188;-62
2021/05/22 05:55:34;;;;;;;2.10;0.90;;;18.20;1.00;;;;;;5053328;28;20185;-62
2021/05/22 05:58:00;;;;;;;1.50;0.70;;;17.40;1.00;;;;;;5053605;28;20237;-62
2021/05/22 06:00:25;;;;;;;2.50;1.03;;;17.70;1.00;;;;;;5053626;28;20189;-63
2021/05/22 06:02:52;;;;;;;2.67;1.03;;;18.40;1.00;;;;;;5053457;28;20194;-62
2021/05/22 06:05:18;;;;;;;1.90;0.90;;;18.20;1.00;;;;;;5053175;28;20223;-62
2021/05/22 06:07:44;;;;;;;2.80;0.87;;;17.60;1.00;;;;;;5053978;28;20169;-62
2021/05/22 06:10:10;;;;;;;3.20;1.70;;;17.20;1.00;;;;;;5053384;28;20447;-62
2021/05/22 06:12:36;;;;;;;3.72;1.15;;;17.70;1.00;;;;;;5053518;28;20438;-62
2021/05/22 06:15:20;;;;;;;3.57;1.33;;;17.80;1.00;;;;;;5052596;28;20185;-62
2021/05/22 06:17:46;;;;;;;1.40;0.93;;;17.00;1.00;;;;;;5053540;28;20752;-62
2021/05/22 06:20:12;;;;;;;2.13;0.93;;;18.00;1.00;;;;;;5053382;28;20423;-62
2021/05/22 06:22:38;;;;;;;1.13;0.93;;;18.00;1.00;;;;;;5053375;28;20614;-62
2021/05/22 06:25:04;;;;;;;2.70;1.07;;;18.20;1.00;;;;;;5053002;28;20211;-62
2021/05/22 06:27:30;;;;;;;1.83;0.90;;;18.20;1.00;;;;;;5053483;28;20585;-63
2021/05/22 06:29:56;;;;;;;2.23;1.30;;;19.00;1.00;;;;;;5056051;28;20450;-62
2021/05/22 06:32:21;;;;;;;2.60;1.40;;;18.70;1.00;;;;;;5055907;28;20910;-62
2021/05/22 06:34:47;;;;;;;3.00;1.00;;;17.60;1.00;;;;;;5055223;28;20185;-62
2021/05/22 06:37:12;;;;;;;3.63;1.90;;;16.40;36.80;;;;;;5056843;28;20283;-65
2021/05/22 06:39:38;;;;;;;2.30;1.03;;;15.90;99.90;;;;;;5054918;28;20259;-65
2021/05/22 06:42:06;;;;;;;4.93;0.80;;;15.60;99.90;;;;;;5054704;28;20211;-62
2021/05/22 06:44:40;;;;;;;1.55;1.10;;;15.80;99.90;;;;;;5055519;28;20251;-62
2021/05/22 06:47:05;;;;;;;4.43;1.02;;;15.70;99.90;;;;;;5056238;28;20191;-62
2021/05/22 06:49:34;;;;;;;2.70;1.07;;;15.70;99.90;;;;;;5055725;28;20255;-62
2021/05/22 06:52:02;;;;;;;2.00;0.95;;;15.70;99.90;;;;;;5055279;28;20614;-62
2021/05/22 06:54:33;;;;;;;2.55;1.00;;;15.60;1.00;;;;;;5052447;28;20185;-62
2021/05/22 06:56:59;;;;;;;1.77;0.70;;;15.60;99.90;;;;;;5052233;28;20184;-62
2021/05/22 06:59:25;;;;;;;4.93;1.30;;;15.70;1.00;;;;;;5051620;28;20193;-62
2021/05/22 07:01:50;;;;;;;1.90;1.27;;;15.70;99.90;;;;;;5051512;28;20203;-62
2021/05/22 07:04:16;;;;;;;2.00;1.00;;;15.50;1.00;;;;;;5051117;28;20211;-62
2021/05/22 07:06:41;;;;;;;3.00;1.00;;;16.10;99.90;;;;;;5051941;28;20177;-62
2021/05/22 07:09:07;;;;;;;4.00;1.33;;;16.00;99.90;;;;;;5051823;28;20181;-61
2021/05/22 07:11:36;;;;;;;2.70;1.27;;;16.10;99.90;;;;;;5051583;28;20246;-62
2021/05/22 07:14:02;;;;;;;2.67;1.08;;;16.30;99.90;;;;;;5052316;28;20199;-62
2021/05/22 07:16:28;;;;;;;4.35;1.40;;;16.50;99.90;;;;;;5052933;28;20191;-62
2021/05/22 07:18:53;;;;;;;1.50;1.00;;;16.10;99.90;;;;;;5052632;28;20180;-62
2021/05/22 07:21:19;;;;;;;2.57;1.20;;;15.80;99.90;;;;;;5052660;28;20191;-61
2021/05/22 07:23:45;;;;;;;4.00;1.47;;;15.70;99.90;;;;;;5051740;28;20214;-62
2021/05/22 07:26:11;;;;;;;3.73;1.60;;;15.70;99.90;;;;;;5052636;28;20280;-62
2021/05/22 07:28:36;;;;;;;2.50;1.03;;;16.10;99.90;;;;;;5052782;28;20565;-65
2021/05/22 07:31:02;;;;;;;4.17;1.10;;;16.10;99.90;;;;;;5033484;28;20466;-62
2021/05/22 07:33:29;;;;;;;1.88;1.15;;;15.50;99.90;;;;;;5055943;28;20200;-64
2021/05/22 07:35:55;;;;;;;2.05;0.98;;;15.50;1.00;;;;;;5055804;28;20192;-64
2021/05/22 07:38:22;;;;;;;1.50;0.80;;;15.30;1.00;;;;;;5055792;28;20177;-63
2021/05/22 07:40:48;;;;;;;2.97;1.05;;;15.20;99.90;;;;;;5056154;28;20462;-65
2021/05/22 07:43:14;;;;;;;5.70;1.53;;;15.50;99.90;;;;;;5038279;28;20204;-64
2021/05/22 07:45:40;;;;;;;3.40;1.23;;;15.60;99.90;;;;;;5055631;28;20219;-67
2021/05/22 07:48:06;;;;;;;3.13;1.30;;;15.60;99.90;;;;;;5055417;28;20927;-67
2021/05/22 07:50:32;;;;;;;5.68;1.73;;;15.60;99.90;;;;;;5055836;28;20469;-64
2021/05/22 07:52:58;;;;;;;5.23;0.97;;;15.60;99.90;;;;;;5055758;28;20200;-64
2021/05/22 07:55:24;;;;;;;4.65;1.67;;;15.40;1.00;;;;;;5055324;28;20480;-65
2021/05/22 07:57:49;;;;;;;2.67;1.10;;;15.90;1.00;;;;;;5055914;28;20770;-65
2021/05/22 08:00:16;;;;;;;4.37;1.83;;;15.90;99.90;;;;;;5055464;28;20185;-66
2021/05/22 08:02:44;;;;;;;2.47;0.90;;;15.90;99.90;;;;;;5055768;28;20191;-65
2021/05/22 08:05:11;;;;;;;1.90;0.88;;;15.70;99.90;;;;;;5054910;28;20236;-65
2021/05/22 08:07:37;;;;;;;8.10;1.30;;;15.30;1.00;;;;;;5055485;28;20208;-66
2021/05/22 08:10:04;;;;;;;2.80;1.07;;;15.50;1.00;;;;;;5055492;28;20278;-66
2021/05/22 08:12:30;;;;;;;3.03;1.13;;;15.90;1.00;;;;;;5055596;28;20207;-69
2021/05/22 08:14:55;;;;;;;2.40;1.07;;;15.70;1.00;;;;;;5054647;28;20892;-67
2021/05/22 08:17:22;;;;;;;2.67;1.13;;;15.60;1.00;;;;;;5055392;28;20183;-67
2021/05/22 08:19:47;;;;;;;3.05;1.30;;;15.40;1.00;;;;;;5055309;28;20681;-67
2021/05/22 08:22:13;;;;;;;2.00;1.17;;;15.00;1.00;;;;;;5055182;28;20276;-66
2021/05/22 08:24:38;;;;;;;5.47;1.70;;;15.00;1.00;;;;;;5054619;28;20220;-66
2021/05/22 08:27:11;;;;;;;2.47;1.20;;;15.30;1.00;;;;;;5055466;28;20176;-67
2021/05/22 08:29:36;;;;;;;2.90;1.20;;;15.00;7.30;;;;;;5055172;28;20204;-66
2021/05/22 08:32:03;;;;;;;2.90;1.30;;;15.00;99.90;;;;;;5037678;28;20216;-68
2021/05/22 08:34:28;;;;;;;2.30;1.17;;;15.50;1.00;;;;;;5054394;28;20184;-66
2021/05/22 08:36:55;;;;;;;2.77;0.97;;;15.30;1.00;;;;;;5055181;28;20250;-67
2021/05/22 08:39:21;;;;;;;4.75;1.40;;;15.20;11.90;;;;;;5037303;28;20185;-66
2021/05/22 08:41:49;;;;;;;5.63;1.60;;;15.20;1.00;;;;;;5054814;28;20207;-66
2021/05/22 08:44:14;;;;;;;2.00;1.10;;;15.00;99.90;;;;;;5036896;28;20204;-68
2021/05/22 08:46:40;;;;;;;4.20;1.83;;;14.90;99.90;;;;;;5055867;28;20511;-69
2021/05/22 08:49:06;;;;;;;4.30;1.63;;;15.20;1.00;;;;;;5055104;28;20621;-72
2021/05/22 08:51:32;;;;;;;5.50;2.00;;;15.40;99.90;;;;;;5055368;28;20189;-71
2021/05/22 08:53:58;;;;;;;2.65;1.27;;;15.80;1.00;;;;;;5054053;28;20169;-69
2021/05/22 08:56:24;;;;;;;3.43;1.40;;;15.60;99.90;;;;;;5054619;28;20202;-66
2021/05/22 08:58:51;;;;;;;5.28;1.65;;;15.40;99.90;;;;;;5054633;28;20175;-66
2021/05/22 09:01:17;;;;;;;2.85;1.30;;;15.50;1.00;;;;;;5054657;28;20286;-65
2021/05/22 09:03:46;;;;;;;2.23;1.40;;;15.40;1.00;;;;;;5054322;28;20173;-66
2021/05/22 09:06:11;;;;;;;3.08;1.30;;;15.20;1.00;;;;;;5036948;28;20180;-65
2021/05/22 09:08:38;;;;;;;3.00;1.40;;;14.90;99.90;;;;;;5036904;28;20199;-66
2021/05/22 09:11:05;;;;;;;3.60;1.50;;;14.70;1.00;;;;;;5054565;28;20621;-69
2021/05/22 09:13:33;;;;;;;3.28;1.52;;;14.50;99.90;;;;;;5054074;28;20195;-67
2021/05/22 09:16:00;;;;;;;1.75;1.33;;;14.00;99.90;;;;;;5053942;28;20184;-67
2021/05/22 09:18:31;;;;;;;2.33;1.15;;;13.80;1.00;;;;;;5054183;28;20184;-66
2021/05/22 09:20:59;;;;;;;1.80;1.13;;;13.70;22.40;;;;;;5054275;28;20181;-66
2021/05/22 09:23:33;;;;;;;1.20;0.93;;;13.60;99.90;;;;;;5036738;28;20173;-66
2021/05/22 09:26:05;;;;;;;4.03;1.75;;;13.70;99.90;;;;;;5036325;28;20215;-68
2021/05/22 09:28:45;;;;;;;4.03;1.42;;;13.40;99.90;;;;;;5054300;28;20208;-68
2021/05/22 09:31:16;;;;;;;2.97;1.23;;;13.60;99.90;;;;;;5054193;28;20173;-66
2021/05/22 09:33:41;;;;;;;2.65;1.58;;;13.90;99.90;;;;;;5037217;28;20169;-67
2021/05/22 09:36:11;;;;;;;1.40;1.17;;;14.40;99.90;;;;;;5053694;28;20238;-67
2021/05/22 09:38:38;;;;;;;2.60;1.65;;;14.40;99.90;;;;;;5053979;28;20173;-66
2021/05/22 09:41:20;;;;;;;4.80;1.55;;;14.70;99.90;;;;;;5053097;28;20185;-65
2021/05/22 09:44:04;;;;;;;1.70;1.35;;;14.30;21.80;;;;;;5053275;28;20184;-66
2021/05/22 09:46:30;;;;;;;1.65;1.25;;;13.80;99.90;;;;;;5053712;28;20173;-67
2021/05/22 09:49:06;;;;;;;4.03;1.50;;;14.10;99.90;;;;;;5053759;28;20522;-66
2021/05/22 09:51:32;;;;;;;2.10;1.35;;;14.30;99.90;;;;;;5053686;28;20189;-66
2021/05/22 09:53:58;;;;;;;2.88;1.35;;;14.50;99.90;;;;;;5052542;28;20602;-65
2021/05/22 09:56:27;;;;;;;3.83;1.50;;;14.40;90.90;;;;;;5053820;28;20173;-65
2021/05/22 09:58:54;;;;;;;3.05;1.23;;;14.20;99.90;;;;;;5053574;28;20204;-67
2021/05/22 10:01:27;;;;;;;4.20;1.52;;;14.30;99.90;;;;;;5053564;28;20184;-67
2021/05/22 10:03:53;;;;;;;3.75;1.50;;;14.20;21.30;;;;;;5035153;28;20177;-67
2021/05/22 10:06:19;;;;;;;2.03;1.83;;;14.00;99.90;;;;;;5053482;28;20192;-70
2021/05/22 10:08:45;;;;;;;2.45;1.15;;;14.20;99.90;;;;;;5035788;28;20500;-70
2021/05/22 10:11:11;;;;;;;1.93;1.30;;;14.30;99.90;;;;;;5053848;28;20208;-69
2021/05/22 10:13:41;;;;;;;1.67;1.13;;;14.50;99.90;;;;;;5053523;28;20423;-66
2021/05/22 10:16:07;;;;;;;4.53;1.25;;;14.50;99.90;;;;;;5052925;28;20835;-66
2021/05/22 10:18:33;;;;;;;3.60;1.20;;;14.30;99.90;;;;;;5053178;28;20212;-68
2021/05/22 10:21:02;;;;;;;2.50;1.50;;;14.20;99.90;;;;;;5053006;28;20254;-67
2021/05/22 10:23:28;;;;;;;6.00;1.85;;;14.20;99.90;;;;;;5035508;28;20459;-67
2021/05/22 10:25:56;;;;;;;3.90;1.73;;;13.90;99.90;;;;;;5052698;28;20281;-66
2021/05/22 10:28:22;;;;;;;5.10;1.60;;;13.60;1.00;;;;;;5052908;28;20200;-66
2021/05/22 10:30:48;;;;;;;2.95;1.33;;;13.80;1.00;;;;;;5052934;28;20238;-67
2021/05/22 10:33:16;;;;;;;7.72;2.60;;;14.10;1.00;;;;;;5052697;28;20219;-66
2021/05/22 10:35:54;;;;;;;3.53;1.40;;;13.90;1.00;;;;;;5052419;28;20207;-67
2021/05/22 10:38:31;;;;;;;3.17;1.52;;;13.90;1.00;;;;;;5052843;28;20234;-66
2021/05/22 10:40:57;;;;;;;2.67;1.40;;;13.70;1.00;;;;;;5052773;28;20172;-66
2021/05/22 10:43:43;;;;;;;3.90;1.37;;;13.70;1.00;;;;;;5052755;28;20246;-65
2021/05/22 10:46:10;;;;;;;3.05;1.63;;;14.10;1.00;;;;;;5052749;28;20183;-64
2021/05/22 10:48:35;;;;;;;2.78;1.52;;;14.00;1.00;;;;;;5053000;28;20255;-68
2021/05/22 10:51:01;;;;;;;3.10;1.40;;;14.20;1.00;;;;;;5052901;28;20266;-66
2021/05/22 10:53:31;;;;;;;1.90;1.70;;;14.50;1.00;;;;;;5052794;28;20185;-64
2021/05/22 10:56:17;;;;;;;2.20;1.77;;;14.60;1.00;;;;;;5052358;28;20173;-61
2021/05/22 10:58:58;;;;;;;2.42;1.35;;;14.30;1.00;;;;;;5052715;28;20192;-61
2021/05/22 11:01:23;;;;;;;1.45;1.35;;;13.90;1.00;;;;;;5052625;28;20206;-61
2021/05/22 11:04:15;;;;;;;3.47;1.73;;;13.70;1.00;;;;;;5051825;28;20255;-63
2021/05/22 11:06:47;;;;;;;4.10;2.10;;;13.80;1.00;;;;;;5037277;28;20181;-68
2021/05/22 11:09:26;;;;;;;1.60;1.50;;;14.20;1.00;;;;;;5056894;28;20251;-68
2021/05/22 11:11:52;;;;;;;3.08;1.88;;;14.00;1.00;;;;;;5037445;28;20208;-68
2021/05/22 11:14:39;;;;;;;3.05;1.85;;;13.70;1.00;;;;;;5037168;28;20223;-67
2021/05/22 11:17:24;;;;;;;3.85;1.40;;;13.50;1.00;;;;;;5054919;28;20180;-68
2021/05/22 11:20:03;;;;;;;4.38;1.80;;;13.70;1.00;;;;;;5060291;28;20580;-67
2021/05/22 11:22:55;;;;;;;2.35;1.45;;;13.90;1.00;;;;;;5062604;28;20247;-67
2021/05/22 11:25:22;;;;;;;3.17;1.30;;;13.70;1.00;;;;;;5043118;28;20204;-67
2021/05/22 11:27:49;;;;;;;1.90;1.80;;;13.50;1.00;;;;;;5044882;28;20176;-67
2021/05/22 11:30:18;;;;;;;3.83;1.38;;;13.60;1.00;;;;;;5062147;28;20169;-67
2021/05/22 11:32:56;;;;;;;2.58;2.38;;;13.50;1.00;;;;;;5062324;28;20173;-67
2021/05/22 11:35:47;;;;;;;1.88;1.75;;;13.50;1.00;;;;;;5062456;28;20234;-67
2021/05/22 11:38:13;;;;;;;1.60;1.40;;;13.30;1.00;;;;;;5062246;28;20532;-67
2021/05/22 11:40:38;;;;;;;6.50;1.77;;;13.20;1.00;;;;;;5041616;28;20173;-66
2021/05/22 11:43:13;;;;;;;4.80;2.63;;;13.50;1.00;;;;;;5059279;28;20195;-68
2021/05/22 11:45:53;;;;;;;2.88;2.40;;;13.50;1.00;;;;;;5044977;28;20211;-68
2021/05/22 11:48:39;;;;;;;3.00;1.65;;;13.30;1.00;;;;;;5043524;28;20248;-68
2021/05/22 11:51:08;;;;;;;2.10;1.55;;;13.50;1.00;;;;;;5042300;28;20173;-68
2021/05/22 11:53:34;;;;;;;7.13;5.40;;;13.60;1.00;;;;;;5060279;28;20173;-68
2021/05/22 11:56:03;;;;;;;2.13;1.80;;;13.40;1.00;;;;;;5060030;28;20213;-68
2021/05/22 11:58:29;;;;;;;2.25;1.60;;;13.30;1.00;;;;;;5044005;28;20185;-68
2021/05/22 12:01:08;;;;;;;2.03;1.58;;;13.20;1.00;;;;;;5060375;28;20240;-68
2021/05/22 12:03:36;;;;;;;3.58;2.25;;;13.50;1.00;;;;;;5057930;28;20247;-68
2021/05/22 12:06:03;;;;;;;3.63;1.95;;;14.20;1.00;;;;;;5058642;28;20244;-68
2021/05/22 12:08:31;;;;;;;3.75;1.90;;;14.30;1.00;;;;;;5058897;28;20254;-68
2021/05/22 12:10:57;;;;;;;2.55;1.83;;;14.30;1.00;;;;;;5043007;28;20193;-68
2021/05/22 12:13:24;;;;;;;5.28;1.95;;;14.20;1.00;;;;;;5043642;28;20488;-68
2021/05/22 12:15:53;;;;;;;3.20;2.70;;;14.30;1.00;;;;;;5058731;28;20204;-68
2021/05/22 12:18:19;;;;;;;2.08;1.88;;;14.90;1.00;;;;;;5056939;28;20180;-68
2021/05/22 12:20:55;;;;;;;1.97;1.30;;;15.30;99.90;;;;;;5057506;28;20173;-68
2021/05/22 12:23:28;;;;;;;2.95;1.80;;;15.60;1.00;;;;;;5040823;28;20430;-68
2021/05/22 12:25:55;;;;;;;2.10;1.85;;;15.00;1.00;;;;;;5059051;28;20209;-68
2021/05/22 12:28:21;;;;;;;1.80;1.70;;;14.70;99.90;;;;;;5057161;28;20189;-68
2021/05/22 12:30:47;;;;;;;2.75;1.80;;;14.90;99.90;;;;;;5039760;28;20229;-68
2021/05/22 12:33:18;;;;;;;2.30;2.00;;;14.90;99.90;;;;;;5054981;28;20189;-68
2021/05/22 12:35:59;;;;;;;2.40;1.95;;;15.00;99.90;;;;;;5053519;28;20587;-68
2021/05/22 12:38:41;;;;;;;5.57;2.13;;;15.30;99.90;;;;;;5037577;28;20625;-62
2021/05/22 12:41:07;;;;;;;2.15;1.90;;;15.40;27.40;;;;;;5055062;28;20185;-62
2021/05/22 12:43:50;;;;;;;4.50;2.20;;;15.10;1.00;;;;;;5053625;28;20184;-62
2021/05/22 12:46:31;;;;;;;2.72;1.70;;;15.20;99.90;;;;;;5053572;28;20184;-62
2021/05/22 12:49:32;;;;;;;2.95;2.20;;;15.60;99.90;;;;;;5053969;28;20613;-62
2021/05/22 12:52:07;;;;;;;1.60;1.50;;;16.00;99.90;;;;;;5036612;28;20193;-61
2021/05/22 12:54:36;;;;;;;1.42;1.25;;;16.40;1.00;;;;;;5053195;28;20565;-62
2021/05/22 12:57:18;;;;;;;2.78;1.80;;;15.80;1.00;;;;;;5053078;28;20184;-62
2021/05/22 13:00:04;;;;;;;3.45;2.30;;;15.70;99.90;;;;;;5032167;28;20177;-62
2021/05/22 13:02:37;;;;;;;3.25;2.00;;;15.50;1.00;;;;;;5051740;28;20266;-61